Time;durP1;ratioP1;P1;durP2;ratioP2;P2;SDS_P1;SDS_P2;PMS_P1;PMS_P2;Temp;Humidity;BMP_temperature;BMP_pressure;BME280_temperature;BME280_humidity;BME280_pressure;Samples;Min_cycle;Max_cycle;Signal;HPM_P1;HPM_P2
2023/01/16 00:01:58;;;;;;;5.97;1.60;;;6.60;99.90;;;;;;5106445;28;20318;-73
2023/01/16 00:04:46;;;;;;;7.70;1.97;;;6.50;99.90;;;;;;5105290;28;20203;-73
2023/01/16 00:07:31;;;;;;;2.67;1.48;;;6.60;99.90;;;;;;5099233;28;20785;-73
2023/01/16 00:10:17;;;;;;;6.60;1.90;;;6.60;99.90;;;;;;5106519;28;20335;-73
2023/01/16 00:13:03;;;;;;;4.13;1.47;;;6.70;99.90;;;;;;5091855;28;20478;-73
2023/01/16 00:15:51;;;;;;;3.30;1.70;;;6.80;99.90;;;;;;5103681;28;20507;-73
2023/01/16 00:18:36;;;;;;;5.75;1.70;;;6.70;99.90;;;;;;5107968;28;20207;-73
2023/01/16 00:21:25;;;;;;;4.37;1.73;;;6.70;99.90;;;;;;5108450;28;20571;-73
2023/01/16 00:24:11;;;;;;;5.60;1.60;;;6.60;99.90;;;;;;5105585;28;20456;-73
2023/01/16 00:26:57;;;;;;;4.77;1.27;;;6.60;99.90;;;;;;5102698;28;20477;-73
2023/01/16 00:29:42;;;;;;;3.33;1.43;;;6.60;99.90;;;;;;5109447;28;20425;-73
2023/01/16 00:32:28;;;;;;;7.50;1.77;;;6.60;99.90;;;;;;5099540;28;20468;-73
2023/01/16 00:35:14;;;;;;;5.17;1.47;;;6.70;99.90;;;;;;5106775;28;20453;-73
2023/01/16 00:38:01;;;;;;;5.00;1.80;;;6.70;99.90;;;;;;5107362;28;20457;-73
2023/01/16 00:40:47;;;;;;;4.85;1.40;;;6.70;99.90;;;;;;5104158;28;20445;-73
2023/01/16 00:43:33;;;;;;;5.28;1.90;;;6.70;99.90;;;;;;5101418;28;20226;-74
2023/01/16 00:46:19;;;;;;;4.30;1.70;;;6.70;99.90;;;;;;5102608;28;20211;-74
2023/01/16 00:49:04;;;;;;;4.50;1.40;;;6.70;99.90;;;;;;5103328;28;20814;-73
2023/01/16 00:51:50;;;;;;;4.15;1.83;;;6.80;99.90;;;;;;5105301;28;20806;-73
2023/01/16 00:54:38;;;;;;;4.15;1.35;;;6.70;99.90;;;;;;5111772;28;20219;-73
2023/01/16 00:57:23;;;;;;;9.52;2.22;;;6.70;99.90;;;;;;5111545;28;20678;-73
2023/01/16 01:00:11;;;;;;;5.47;1.42;;;6.60;99.90;;;;;;5106524;27;20257;-73
2023/01/16 01:02:56;;;;;;;2.97;1.27;;;6.50;99.90;;;;;;5104899;28;20230;-73
2023/01/16 01:05:42;;;;;;;5.27;1.40;;;6.60;99.90;;;;;;5106000;28;20202;-73
2023/01/16 01:08:28;;;;;;;3.70;1.80;;;6.60;99.90;;;;;;5108974;27;20455;-73
2023/01/16 01:11:15;;;;;;;3.00;1.30;;;6.70;99.90;;;;;;5110031;27;20206;-73
2023/01/16 01:14:01;;;;;;;4.35;1.48;;;6.60;99.90;;;;;;5108370;28;20231;-73
2023/01/16 01:16:47;;;;;;;5.73;2.50;;;6.60;99.90;;;;;;5111828;28;20207;-73
2023/01/16 01:19:32;;;;;;;2.60;1.38;;;6.60;99.90;;;;;;5106523;28;20639;-73
2023/01/16 01:22:18;;;;;;;6.78;1.58;;;6.60;99.90;;;;;;5106223;28;20203;-73
2023/01/16 01:25:04;;;;;;;3.65;1.30;;;6.50;99.90;;;;;;5104756;28;20215;-73
2023/01/16 01:27:52;;;;;;;5.55;1.38;;;6.50;99.90;;;;;;5108920;28;20199;-73
2023/01/16 01:30:38;;;;;;;4.13;1.20;;;6.60;99.90;;;;;;5110551;28;20199;-73
2023/01/16 01:33:24;;;;;;;6.32;1.45;;;6.60;99.90;;;;;;5126616;27;20291;-73
2023/01/16 01:36:10;;;;;;;7.03;1.50;;;6.60;99.90;;;;;;5113490;27;20210;-73
2023/01/16 01:38:56;;;;;;;2.45;1.58;;;6.60;99.90;;;;;;5110968;27;20205;-74
2023/01/16 01:41:42;;;;;;;5.20;1.87;;;6.50;99.90;;;;;;5097788;28;20249;-73
2023/01/16 01:44:51;;;;;;;5.55;1.70;;;6.50;99.90;;;;;;5103531;28;20437;-73
2023/01/16 01:47:41;;;;;;;5.00;1.40;;;6.50;99.90;;;;;;5115723;27;20207;-74
2023/01/16 01:50:36;;;;;;;3.75;1.25;;;6.50;99.90;;;;;;5109399;28;20241;-73
2023/01/16 01:53:28;;;;;;;5.22;1.35;;;6.60;99.90;;;;;;5107956;28;20230;-73
2023/01/16 01:56:18;;;;;;;2.75;1.50;;;6.40;99.90;;;;;;5109681;28;20321;-73
2023/01/16 01:59:10;;;;;;;3.40;1.50;;;6.40;99.90;;;;;;5105324;28;20699;-73
2023/01/16 02:01:58;;;;;;;5.03;1.45;;;6.40;99.90;;;;;;5101620;28;20332;-73
2023/01/16 02:04:45;;;;;;;2.33;1.30;;;6.40;99.90;;;;;;5106119;28;20288;-73
2023/01/16 02:07:31;;;;;;;3.45;1.30;;;6.50;99.90;;;;;;5108306;28;20702;-74
2023/01/16 02:10:26;;;;;;;7.32;1.70;;;6.50;99.90;;;;;;5112420;27;20199;-73
2023/01/16 02:13:12;;;;;;;5.43;1.63;;;6.60;99.90;;;;;;5113899;27;20339;-73
2023/01/16 02:19:15;;;;;;;10.50;2.15;;;6.60;99.90;;;;;;5107217;28;20202;-73
2023/01/16 02:22:35;;;;;;;6.95;1.60;;;6.60;99.90;;;;;;5107697;27;20698;-73
2023/01/16 02:25:48;;;;;;;6.03;1.50;;;6.70;99.90;;;;;;5073238;28;20214;-73
2023/01/16 02:29:04;;;;;;;6.78;1.80;;;6.60;99.90;;;;;;5114435;28;20202;-72
2023/01/16 02:32:00;;;;;;;5.20;2.25;;;6.60;99.90;;;;;;5118341;27;20202;-72
2023/01/16 02:35:01;;;;;;;4.43;1.27;;;6.70;99.90;;;;;;5118065;27;20557;-73
2023/01/16 02:37:52;;;;;;;6.10;1.40;;;6.60;99.90;;;;;;5105911;28;20197;-73
2023/01/16 02:40:47;;;;;;;7.15;1.60;;;6.60;99.90;;;;;;5117103;27;20441;-73
2023/01/16 02:43:41;;;;;;;4.15;1.45;;;6.60;99.90;;;;;;5119217;27;20578;-73
2023/01/16 02:46:33;;;;;;;4.85;1.58;;;6.50;99.90;;;;;;5108392;28;20199;-73
2023/01/16 02:49:24;;;;;;;4.55;1.52;;;6.60;99.90;;;;;;5103938;28;20207;-73
2023/01/16 02:52:17;;;;;;;6.88;1.88;;;6.70;99.90;;;;;;5121227;27;20199;-73
2023/01/16 02:55:08;;;;;;;4.60;1.63;;;6.70;99.90;;;;;;5110631;28;20691;-73
2023/01/16 02:57:59;;;;;;;4.20;1.45;;;6.70;99.90;;;;;;5111128;28;20202;-73
2023/01/16 03:00:51;;;;;;;5.97;1.27;;;6.60;99.90;;;;;;5101399;28;20202;-73
2023/01/16 03:03:42;;;;;;;12.75;1.40;;;6.60;99.90;;;;;;5110494;28;20230;-73
2023/01/16 03:06:41;;;;;;;4.60;1.38;;;6.60;99.90;;;;;;5101265;28;20719;-73
2023/01/16 03:09:38;;;;;;;5.95;1.27;;;6.60;99.90;;;;;;5114852;27;20258;-73
2023/01/16 03:12:34;;;;;;;3.13;1.40;;;6.50;99.90;;;;;;5110705;28;20324;-73
2023/01/16 03:15:25;;;;;;;8.88;1.33;;;6.50;99.90;;;;;;5110356;28;20244;-74
2023/01/16 03:18:19;;;;;;;4.90;1.57;;;6.60;99.90;;;;;;5111414;28;20198;-74
2023/01/16 03:21:11;;;;;;;4.70;1.70;;;6.60;99.90;;;;;;5112518;27;20561;-74
2023/01/16 03:24:04;;;;;;;3.70;1.08;;;6.50;99.90;;;;;;5104427;27;20223;-73
2023/01/16 03:26:56;;;;;;;5.47;1.42;;;6.60;99.90;;;;;;5106439;28;20203;-73
2023/01/16 03:29:47;;;;;;;2.83;1.00;;;6.60;99.90;;;;;;5101719;28;20651;-73
2023/01/16 03:32:40;;;;;;;2.00;1.20;;;6.60;99.90;;;;;;5111484;28;20203;-73
2023/01/16 03:35:30;;;;;;;2.85;1.00;;;6.60;99.90;;;;;;5108886;28;20696;-73
2023/01/16 03:38:18;;;;;;;4.20;1.40;;;6.60;99.90;;;;;;5109634;28;20205;-73
2023/01/16 03:41:07;;;;;;;3.55;1.23;;;6.60;99.90;;;;;;5104019;28;20569;-73
2023/01/16 03:43:59;;;;;;;3.60;1.15;;;6.60;99.90;;;;;;5111468;28;20211;-73
2023/01/16 03:46:49;;;;;;;4.80;1.10;;;6.60;99.90;;;;;;5110548;28;20206;-73
2023/01/16 03:49:39;;;;;;;4.00;1.23;;;6.70;99.90;;;;;;5100918;28;20211;-73
2023/01/16 03:52:31;;;;;;;4.40;1.65;;;6.70;99.90;;;;;;5106226;28;20470;-73
2023/01/16 03:55:20;;;;;;;6.10;1.30;;;6.70;99.90;;;;;;5110420;28;20199;-73
2023/01/16 03:58:10;;;;;;;6.13;1.20;;;6.70;99.90;;;;;;5105030;28;20201;-73
2023/01/16 04:01:06;;;;;;;3.93;1.53;;;6.70;99.90;;;;;;5118569;27;20205;-73
2023/01/16 04:04:01;;;;;;;4.40;1.50;;;6.70;99.90;;;;;;5104843;28;20480;-73
2023/01/16 04:06:52;;;;;;;4.55;1.35;;;6.70;99.90;;;;;;5106406;28;20309;-73
2023/01/16 04:09:42;;;;;;;6.53;1.10;;;6.70;99.90;;;;;;5112582;27;20324;-73
2023/01/16 04:12:33;;;;;;;6.50;1.40;;;6.70;99.90;;;;;;5119610;28;20987;-73
2023/01/16 04:15:24;;;;;;;3.00;1.20;;;6.80;99.90;;;;;;5105523;28;20434;-73
2023/01/16 04:18:10;;;;;;;4.57;1.30;;;6.90;99.90;;;;;;5103938;28;20775;-73
2023/01/16 04:20:55;;;;;;;5.80;1.15;;;6.90;99.90;;;;;;5114620;28;20347;-73
2023/01/16 04:23:42;;;;;;;4.95;1.10;;;6.90;99.90;;;;;;5107724;28;20265;-73
2023/01/16 04:26:27;;;;;;;7.80;1.50;;;6.80;99.90;;;;;;5119348;27;20198;-73
2023/01/16 04:29:13;;;;;;;6.68;1.60;;;6.80;99.90;;;;;;5112899;27;20214;-74
2023/01/16 04:32:00;;;;;;;2.50;1.15;;;6.90;99.90;;;;;;5112328;27;20218;-73
2023/01/16 04:34:46;;;;;;;4.25;1.30;;;6.90;99.90;;;;;;5110633;28;20218;-73
2023/01/16 04:37:33;;;;;;;5.32;1.50;;;6.90;99.90;;;;;;5112923;28;20203;-73
2023/01/16 04:40:18;;;;;;;3.97;1.02;;;6.90;99.90;;;;;;5105079;27;20302;-73
2023/01/16 04:43:04;;;;;;;3.65;1.05;;;6.80;99.90;;;;;;5120020;27;20256;-74
2023/01/16 04:45:50;;;;;;;5.65;1.80;;;6.80;99.90;;;;;;5108430;28;20191;-73
2023/01/16 04:48:37;;;;;;;7.07;1.50;;;6.70;99.90;;;;;;5108815;27;20569;-73
2023/01/16 04:51:22;;;;;;;5.97;1.45;;;6.70;99.90;;;;;;5118625;27;20315;-73
2023/01/16 04:54:14;;;;;;;3.40;1.00;;;6.70;99.90;;;;;;5112267;28;20252;-73
2023/01/16 04:57:00;;;;;;;3.55;1.15;;;6.80;99.90;;;;;;5111987;28;20679;-73
2023/01/16 04:59:46;;;;;;;2.50;1.00;;;6.80;99.90;;;;;;5112627;27;20671;-73
2023/01/16 05:02:31;;;;;;;3.35;1.27;;;6.70;99.90;;;;;;5111955;27;20514;-73
2023/01/16 05:05:18;;;;;;;3.25;0.90;;;6.80;99.90;;;;;;5110666;28;20585;-73
2023/01/16 05:08:19;;;;;;;4.25;1.50;;;6.80;99.90;;;;;;5108447;28;20340;-73
2023/01/16 05:11:05;;;;;;;9.38;1.27;;;6.90;99.90;;;;;;5108556;28;20202;-73
2023/01/16 05:13:52;;;;;;;4.82;1.20;;;6.90;99.90;;;;;;5114163;28;20222;-73
2023/01/16 05:16:38;;;;;;;3.58;0.90;;;6.90;99.90;;;;;;5108120;28;20203;-73
2023/01/16 05:19:24;;;;;;;3.30;1.15;;;6.90;99.90;;;;;;5117077;27;20205;-74
2023/01/16 05:22:11;;;;;;;3.00;1.27;;;6.90;99.90;;;;;;5110772;27;20229;-73
2023/01/16 05:24:57;;;;;;;8.07;1.42;;;7.00;99.90;;;;;;5114294;28;20646;-73
2023/01/16 05:27:42;;;;;;;6.90;1.50;;;7.00;99.90;;;;;;5110029;28;20244;-73
2023/01/16 05:30:28;;;;;;;5.70;1.80;;;7.10;99.90;;;;;;5109624;28;20779;-73
2023/01/16 05:33:14;;;;;;;8.38;1.98;;;7.10;99.90;;;;;;5109420;28;20546;-73
2023/01/16 05:35:59;;;;;;;3.15;1.58;;;7.00;99.90;;;;;;5113093;28;20321;-73
2023/01/16 05:38:47;;;;;;;5.95;2.08;;;6.90;99.90;;;;;;5113522;27;20261;-73
2023/01/16 05:41:32;;;;;;;5.53;1.80;;;6.80;99.90;;;;;;5114559;27;20198;-74
2023/01/16 05:44:19;;;;;;;3.00;1.63;;;6.80;99.90;;;;;;5112851;28;20957;-73
2023/01/16 05:47:04;;;;;;;4.97;2.25;;;6.80;99.90;;;;;;5113600;28;20206;-73
2023/01/16 05:49:50;;;;;;;6.20;1.40;;;6.80;99.90;;;;;;5114772;27;20210;-73
2023/01/16 05:52:36;;;;;;;5.53;1.70;;;6.70;99.90;;;;;;5105717;28;20441;-73
2023/01/16 05:55:23;;;;;;;3.70;1.40;;;6.80;99.90;;;;;;5111011;28;20223;-73
2023/01/16 05:58:10;;;;;;;5.10;1.27;;;6.60;99.90;;;;;;5101627;28;20200;-73
2023/01/16 06:00:55;;;;;;;2.93;1.20;;;6.60;99.90;;;;;;5112327;27;20220;-73
2023/01/16 06:03:41;;;;;;;5.73;1.30;;;6.40;99.90;;;;;;5105395;28;20816;-73
2023/01/16 06:06:26;;;;;;;8.45;1.60;;;6.50;99.90;;;;;;5112485;28;20449;-73
2023/01/16 06:09:12;;;;;;;3.07;1.17;;;6.50;99.90;;;;;;5114345;27;20590;-73
2023/01/16 06:11:59;;;;;;;5.15;1.60;;;6.40;99.90;;;;;;5109624;27;20483;-73
2023/01/16 06:14:45;;;;;;;8.27;1.40;;;6.40;99.90;;;;;;5106141;28;20628;-73
2023/01/16 06:17:31;;;;;;;3.33;1.30;;;6.40;99.90;;;;;;5109291;28;21365;-73
2023/01/16 06:20:17;;;;;;;18.33;1.80;;;6.30;99.90;;;;;;5111099;28;20194;-73
2023/01/16 06:23:03;;;;;;;7.10;2.50;;;6.30;99.90;;;;;;5109648;27;20455;-73
2023/01/16 06:25:50;;;;;;;8.20;2.43;;;6.30;99.90;;;;;;5108852;28;20444;-73
2023/01/16 06:28:37;;;;;;;6.82;4.60;;;6.40;99.90;;;;;;5108202;27;20704;-73
2023/01/16 06:31:22;;;;;;;8.37;4.40;;;6.40;99.90;;;;;;5108188;27;20215;-73
2023/01/16 06:34:08;;;;;;;11.68;4.07;;;6.20;99.90;;;;;;5110641;28;20468;-73
2023/01/16 06:36:53;;;;;;;6.45;2.80;;;6.30;99.90;;;;;;5112697;28;20224;-73
2023/01/16 06:39:39;;;;;;;11.57;5.45;;;6.20;99.90;;;;;;5111993;27;20656;-73
2023/01/16 06:42:25;;;;;;;9.67;5.00;;;6.30;99.90;;;;;;5111453;28;20215;-73
2023/01/16 06:45:12;;;;;;;16.77;8.38;;;6.20;99.90;;;;;;5109179;28;20428;-73
2023/01/16 06:47:58;;;;;;;12.23;5.73;;;6.10;99.90;;;;;;5101233;28;20195;-73
2023/01/16 06:50:43;;;;;;;36.43;20.87;;;6.00;99.90;;;;;;5112333;28;20400;-73
2023/01/16 06:53:29;;;;;;;23.92;13.82;;;6.10;99.90;;;;;;5111792;28;20922;-73
2023/01/16 06:56:17;;;;;;;17.77;10.33;;;6.10;99.90;;;;;;5110253;28;20308;-73
2023/01/16 06:59:02;;;;;;;5.30;3.55;;;6.10;99.90;;;;;;5107381;27;21023;-73
2023/01/16 07:01:49;;;;;;;9.50;2.70;;;5.90;99.90;;;;;;5112084;28;20203;-73
2023/01/16 07:04:35;;;;;;;4.07;1.40;;;5.80;99.90;;;;;;5108734;28;20526;-74
2023/01/16 07:07:20;;;;;;;22.95;10.98;;;5.80;99.90;;;;;;5107988;27;20679;-73
2023/01/16 07:10:07;;;;;;;13.95;6.32;;;5.80;99.90;;;;;;5122726;27;20203;-73
2023/01/16 07:12:53;;;;;;;12.18;3.83;;;5.80;99.90;;;;;;5105885;28;20222;-73
2023/01/16 07:24:56;;;;;;;8.93;4.10;;;5.90;99.90;;;;;;5104885;28;20190;-73
2023/01/16 07:27:42;;;;;;;6.15;2.05;;;5.90;99.90;;;;;;5112258;27;20205;-73
2023/01/16 07:30:28;;;;;;;6.07;1.40;;;5.90;99.90;;;;;;5110307;27;20211;-74
2023/01/16 07:33:14;;;;;;;3.90;1.20;;;6.00;99.90;;;;;;5110550;28;20272;-73
2023/01/16 07:36:01;;;;;;;9.90;1.70;;;6.10;99.90;;;;;;5106548;28;20241;-73
2023/01/16 07:38:46;;;;;;;5.63;1.80;;;6.10;99.90;;;;;;5103017;27;20409;-73
2023/01/16 07:41:32;;;;;;;9.43;1.77;;;6.10;99.90;;;;;;5111532;28;20280;-73
2023/01/16 07:44:18;;;;;;;14.25;1.80;;;6.20;99.90;;;;;;5113529;28;20211;-73
2023/01/16 07:47:03;;;;;;;2.70;1.20;;;6.20;99.90;;;;;;5107203;28;21021;-74
2023/01/16 07:49:49;;;;;;;6.13;1.90;;;6.20;99.90;;;;;;5112743;28;20260;-73
2023/01/16 07:52:36;;;;;;;7.85;1.73;;;6.10;99.90;;;;;;5106586;28;20967;-73
2023/01/16 07:55:22;;;;;;;4.43;2.70;;;6.20;99.90;;;;;;5101210;28;20273;-74
2023/01/16 07:58:08;;;;;;;7.25;1.95;;;6.20;99.90;;;;;;5105177;28;20241;-73
2023/01/16 08:00:55;;;;;;;5.70;2.10;;;6.20;99.90;;;;;;5110314;28;20207;-73
2023/01/16 08:03:41;;;;;;;5.65;1.88;;;6.20;99.90;;;;;;5117834;28;20719;-73
2023/01/16 08:06:27;;;;;;;4.45;1.20;;;6.20;99.90;;;;;;5115310;28;20202;-73
2023/01/16 08:09:14;;;;;;;7.78;4.47;;;6.30;99.90;;;;;;5108324;28;20558;-73
2023/01/16 08:12:00;;;;;;;9.23;2.22;;;6.20;99.90;;;;;;5115794;28;20198;-73
2023/01/16 08:14:45;;;;;;;5.45;2.92;;;6.30;99.90;;;;;;5112636;28;20222;-73
2023/01/16 08:17:31;;;;;;;3.13;1.50;;;6.30;99.90;;;;;;5109586;28;20678;-73
2023/01/16 08:20:17;;;;;;;2.72;1.33;;;6.30;99.90;;;;;;5106545;28;20451;-73
2023/01/16 08:23:03;;;;;;;3.75;1.60;;;6.40;99.90;;;;;;5123383;28;20229;-72
2023/01/16 08:25:52;;;;;;;4.15;1.80;;;6.30;99.90;;;;;;5105423;28;20199;-73
2023/01/16 08:28:37;;;;;;;2.70;1.47;;;6.40;99.90;;;;;;5105879;28;20755;-73
2023/01/16 08:31:23;;;;;;;5.40;1.88;;;6.30;99.90;;;;;;5099448;28;20445;-73
2023/01/16 08:34:08;;;;;;;2.75;1.55;;;6.30;99.90;;;;;;5112073;28;20230;-73
2023/01/16 08:36:54;;;;;;;2.80;1.15;;;6.50;99.90;;;;;;5107238;28;20191;-73
2023/01/16 08:39:39;;;;;;;8.52;1.40;;;6.50;99.90;;;;;;5110631;28;20222;-72
2023/01/16 08:51:38;;;;;;;3.83;1.40;;;6.60;99.90;;;;;;5099342;28;20678;-73
2023/01/16 08:54:23;;;;;;;3.92;1.40;;;6.70;99.90;;;;;;5108663;28;20235;-73
2023/01/16 08:57:10;;;;;;;3.83;1.37;;;6.60;99.90;;;;;;5109972;28;20206;-73
2023/01/16 08:59:58;;;;;;;2.45;1.10;;;6.70;99.90;;;;;;5103339;28;20739;-73
2023/01/16 09:02:45;;;;;;;5.63;1.20;;;6.80;99.90;;;;;;5104664;28;20220;-73
2023/01/16 09:05:30;;;;;;;4.45;1.45;;;6.80;99.90;;;;;;5110243;28;20780;-71
2023/01/16 09:08:16;;;;;;;4.40;1.50;;;6.90;99.90;;;;;;5109067;28;20206;-70
2023/01/16 09:14:05;;;;;;;3.47;1.13;;;6.80;98.80;;;;;;5108172;28;20510;-73
2023/01/16 09:16:52;;;;;;;4.60;1.20;;;6.80;99.90;;;;;;5108147;28;20502;-73
2023/01/16 09:19:38;;;;;;;7.10;1.20;;;6.80;99.20;;;;;;5103145;28;20448;-73
2023/01/16 09:22:23;;;;;;;2.75;1.10;;;6.80;99.90;;;;;;5108492;28;20779;-73
2023/01/16 09:25:10;;;;;;;2.50;1.00;;;6.70;99.90;;;;;;5114249;28;20199;-73
2023/01/16 09:27:55;;;;;;;3.05;1.65;;;6.70;99.90;;;;;;5113851;28;20433;-73
2023/01/16 09:30:41;;;;;;;6.63;1.63;;;6.60;99.90;;;;;;5102552;28;20288;-73
2023/01/16 09:33:28;;;;;;;4.00;1.30;;;6.60;99.90;;;;;;5111164;28;20723;-73
2023/01/16 09:36:13;;;;;;;5.82;1.50;;;6.70;99.90;;;;;;5112393;28;21022;-72
2023/01/16 09:38:59;;;;;;;7.45;1.77;;;6.70;99.90;;;;;;5112889;27;20197;-73
2023/01/16 09:45:05;;;;;;;3.67;1.38;;;6.50;99.90;;;;;;5110172;28;20451;-73
2023/01/16 09:47:56;;;;;;;3.70;1.30;;;6.40;99.90;;;;;;5113365;27;20318;-73
2023/01/16 09:50:48;;;;;;;2.95;1.45;;;6.40;99.90;;;;;;5102970;28;20680;-73
2023/01/16 09:59:55;;;;;;;1.70;1.10;;;6.60;99.90;;;;;;5102852;28;20210;-73
2023/01/16 10:02:43;;;;;;;6.30;1.73;;;6.40;99.90;;;;;;5113400;27;20222;-73
2023/01/16 10:05:35;;;;;;;2.30;1.17;;;6.30;99.90;;;;;;5102257;27;21176;-73
2023/01/16 10:08:31;;;;;;;5.30;1.52;;;6.30;99.90;;;;;;5112130;28;20471;-73
2023/01/16 10:11:24;;;;;;;3.28;1.70;;;6.40;99.90;;;;;;5104863;28;20198;-73
2023/01/16 10:14:20;;;;;;;2.85;1.60;;;6.30;99.90;;;;;;5112901;28;20322;-73
2023/01/16 10:17:17;;;;;;;2.90;1.70;;;6.30;99.90;;;;;;5113644;28;20680;-73
2023/01/16 10:20:25;;;;;;;2.67;1.27;;;6.30;99.90;;;;;;5099687;28;20955;-72
2023/01/16 10:23:24;;;;;;;3.53;1.33;;;6.30;99.90;;;;;;5099404;28;20281;-73
2023/01/16 10:26:15;;;;;;;4.93;1.33;;;6.20;99.90;;;;;;5115437;27;20261;-73
2023/01/16 10:29:10;;;;;;;5.63;1.45;;;6.30;99.90;;;;;;5106439;28;20211;-73
2023/01/16 10:32:01;;;;;;;4.67;1.80;;;6.30;99.90;;;;;;5110825;28;20203;-73
2023/01/16 10:34:55;;;;;;;3.80;1.45;;;6.30;99.90;;;;;;5111272;28;20534;-73
2023/01/16 10:37:41;;;;;;;6.90;2.55;;;6.20;99.90;;;;;;5112980;28;20211;-73
2023/01/16 10:40:31;;;;;;;4.68;2.45;;;6.20;99.90;;;;;;5106969;27;20417;-73
2023/01/16 10:49:32;;;;;;;2.42;1.40;;;6.10;99.90;;;;;;5110541;27;20251;-71
2023/01/16 10:52:18;;;;;;;3.97;1.80;;;6.00;99.90;;;;;;5117587;27;20703;-73
2023/01/16 10:55:05;;;;;;;5.05;1.80;;;6.00;99.90;;;;;;5105789;28;20269;-73
2023/01/16 10:57:53;;;;;;;3.05;1.45;;;6.00;99.90;;;;;;5104894;28;20203;-73
2023/01/16 11:00:44;;;;;;;3.88;1.70;;;6.00;99.90;;;;;;5104707;28;20203;-73
2023/01/16 11:03:35;;;;;;;3.17;1.40;;;6.00;99.90;;;;;;5104393;28;20261;-73
2023/01/16 11:06:22;;;;;;;2.65;1.75;;;6.00;99.90;;;;;;5103213;28;20195;-73
2023/01/16 11:09:17;;;;;;;3.30;1.80;;;5.90;99.90;;;;;;5105556;27;20307;-74
2023/01/16 11:18:30;;;;;;;3.00;1.65;;;5.80;99.90;;;;;;5106621;28;20568;-73
2023/01/16 11:21:24;;;;;;;2.83;1.52;;;5.90;99.90;;;;;;5108719;28;20202;-73
2023/01/16 11:24:16;;;;;;;6.55;1.33;;;5.90;99.90;;;;;;5106296;28;20311;-73
2023/01/16 11:27:05;;;;;;;3.33;1.75;;;5.90;99.90;;;;;;5112070;28;20206;-73
2023/01/16 11:29:54;;;;;;;4.32;1.50;;;6.00;99.90;;;;;;5099959;28;20279;-73
2023/01/16 11:32:47;;;;;;;1.85;1.27;;;6.10;99.90;;;;;;5111455;28;20214;-73
2023/01/16 11:35:37;;;;;;;2.65;1.50;;;6.10;99.90;;;;;;5104003;28;20718;-73
2023/01/16 11:38:24;;;;;;;4.13;1.60;;;6.00;99.90;;;;;;5106887;28;20221;-74
2023/01/16 11:41:10;;;;;;;2.80;1.40;;;6.10;99.90;;;;;;5111077;28;20333;-73
2023/01/16 11:47:22;;;;;;;1.92;1.27;;;6.00;99.90;;;;;;5109210;28;20186;-73
2023/01/16 11:50:26;;;;;;;4.05;1.40;;;6.00;99.90;;;;;;5100901;28;20711;-74
2023/01/16 11:53:13;;;;;;;1.92;1.40;;;6.10;99.90;;;;;;5107157;28;20312;-73
2023/01/16 11:56:24;;;;;;;4.90;1.58;;;6.10;99.90;;;;;;5106696;28;20242;-73
2023/01/16 11:59:52;;;;;;;5.25;1.48;;;6.10;99.90;;;;;;5108409;28;20218;-73
2023/01/16 12:03:05;;;;;;;2.45;1.13;;;6.10;99.90;;;;;;5043510;28;20279;-73
2023/01/16 12:06:02;;;;;;;2.15;1.30;;;6.30;99.90;;;;;;5041532;28;20246;-73
2023/01/16 12:09:25;;;;;;;2.40;1.60;;;6.40;99.90;;;;;;5099922;28;20574;-73
2023/01/16 12:15:28;;;;;;;4.85;1.38;;;6.60;99.90;;;;;;5108749;28;20242;-73
2023/01/16 12:18:23;;;;;;;2.58;0.95;;;6.50;99.90;;;;;;5106001;28;20679;-73
2023/01/16 12:21:23;;;;;;;3.25;1.15;;;6.70;99.90;;;;;;5111166;28;20330;-73
2023/01/16 12:24:34;;;;;;;2.78;1.20;;;6.80;99.90;;;;;;5110704;28;20227;-73
2023/01/16 12:27:34;;;;;;;2.70;1.10;;;6.90;99.90;;;;;;5109238;28;20281;-74
2023/01/16 12:30:26;;;;;;;5.10;1.63;;;6.90;99.90;;;;;;5105249;28;20231;-73
2023/01/16 12:33:21;;;;;;;2.00;1.20;;;7.00;99.90;;;;;;5112138;28;20916;-73
2023/01/16 12:36:12;;;;;;;1.65;0.80;;;7.10;99.90;;;;;;5111180;28;20546;-73
2023/01/16 12:39:06;;;;;;;1.60;0.80;;;7.10;99.90;;;;;;5105365;28;20301;-73
2023/01/16 12:45:20;;;;;;;3.65;0.90;;;7.20;99.90;;;;;;5108604;27;20448;-73
2023/01/16 12:48:25;;;;;;;1.80;0.90;;;7.30;99.90;;;;;;5110897;28;20321;-73
2023/01/16 12:51:33;;;;;;;1.77;0.80;;;7.30;99.90;;;;;;5112129;28;20276;-73
2023/01/16 12:54:30;;;;;;;1.70;1.00;;;7.40;99.90;;;;;;5108229;28;21012;-73
2023/01/16 12:57:50;;;;;;;2.33;1.07;;;7.50;99.90;;;;;;5115132;28;20599;-73
2023/01/16 13:00:42;;;;;;;2.27;1.20;;;7.50;99.90;;;;;;5101248;28;20587;-73
2023/01/16 13:03:34;;;;;;;4.70;1.20;;;7.60;99.90;;;;;;5119869;27;20463;-74
2023/01/16 13:06:34;;;;;;;2.13;1.00;;;7.60;99.90;;;;;;5118518;27;20214;-73
2023/01/16 13:09:28;;;;;;;2.15;1.23;;;7.70;99.90;;;;;;5111279;28;20575;-74
2023/01/16 13:15:32;;;;;;;6.83;0.90;;;7.80;99.90;;;;;;5067931;27;20471;-74
2023/01/16 13:18:22;;;;;;;7.07;0.90;;;7.80;99.90;;;;;;5109001;28;20461;-73
2023/01/16 13:21:14;;;;;;;2.30;1.13;;;7.80;99.90;;;;;;5110431;28;20677;-73
2023/01/16 13:24:05;;;;;;;2.87;1.33;;;7.80;99.20;;;;;;5105378;28;20476;-73
2023/01/16 13:26:58;;;;;;;2.03;0.95;;;7.70;99.90;;;;;;5104247;28;20502;-73
2023/01/16 13:29:47;;;;;;;2.10;1.10;;;7.60;99.90;;;;;;5103904;28;20199;-73
2023/01/16 13:32:37;;;;;;;3.83;1.00;;;7.70;99.90;;;;;;5107106;28;20457;-73
2023/01/16 13:35:28;;;;;;;4.47;1.10;;;7.50;99.90;;;;;;5107975;28;20456;-73
2023/01/16 13:38:40;;;;;;;1.70;0.93;;;7.50;99.90;;;;;;5110026;28;20199;-74
2023/01/16 13:41:27;;;;;;;4.68;1.15;;;7.60;99.90;;;;;;5109466;28;20211;-73
2023/01/16 13:47:25;;;;;;;2.27;1.10;;;7.70;99.90;;;;;;5107511;28;20953;-73
2023/01/16 13:50:21;;;;;;;2.07;0.90;;;7.70;99.90;;;;;;5106063;28;20445;-73
2023/01/16 13:53:09;;;;;;;1.50;0.70;;;7.60;99.90;;;;;;5111639;27;20460;-73
2023/01/16 13:56:06;;;;;;;4.70;1.27;;;7.50;99.90;;;;;;5103516;27;20618;-73
2023/01/16 13:58:56;;;;;;;2.97;0.80;;;7.50;99.90;;;;;;5110242;28;20452;-73
2023/01/16 14:01:56;;;;;;;2.53;0.98;;;7.40;99.90;;;;;;5104329;28;20563;-73
2023/01/16 14:04:43;;;;;;;2.10;1.15;;;7.30;99.90;;;;;;5110836;28;20569;-74
2023/01/16 14:11:15;;;;;;;2.65;0.95;;;7.40;99.90;;;;;;5106242;28;20692;-73
2023/01/16 14:16:30;;;;;;;1.60;0.90;;;7.50;99.90;;;;;;5125335;27;20222;-73
2023/01/16 14:17:31;;;;;;;1.40;0.93;;;7.50;99.90;;;;;;5110476;28;20233;-74
2023/01/16 14:20:37;;;;;;;2.00;1.15;;;7.50;99.90;;;;;;5109723;28;21837;-72
2023/01/16 14:26:42;;;;;;;2.10;0.80;;;7.40;99.90;;;;;;5107835;28;20489;-72
2023/01/16 14:29:30;;;;;;;1.80;0.93;;;7.50;99.90;;;;;;5110514;28;20457;-72
2023/01/16 14:32:19;;;;;;;2.33;1.10;;;7.50;99.90;;;;;;5103155;28;20214;-73
2023/01/16 14:35:13;;;;;;;3.30;1.40;;;7.50;99.90;;;;;;5106386;28;20495;-73
2023/01/16 14:38:02;;;;;;;1.70;1.03;;;7.60;99.90;;;;;;5114432;27;20495;-73
2023/01/16 14:57:03;;;;;;;1.90;1.00;;;7.60;99.90;;;;;;5112828;28;20502;-73
2023/01/16 14:59:55;;;;;;;1.80;1.10;;;7.50;99.90;;;;;;5106426;28;20787;-74
2023/01/16 15:02:47;;;;;;;6.73;2.53;;;7.60;99.90;;;;;;5103713;27;20463;-73
2023/01/16 15:08:47;;;;;;;1.87;1.10;;;7.60;99.90;;;;;;5101550;27;20457;-74
2023/01/16 15:11:42;;;;;;;3.40;1.50;;;7.50;99.90;;;;;;5108321;28;20574;-73
2023/01/16 15:14:29;;;;;;;3.57;1.03;;;7.60;99.90;;;;;;5119742;27;20469;-73
2023/01/16 15:23:31;;;;;;;2.15;1.33;;;7.50;99.90;;;;;;5104266;28;20479;-73
2023/01/16 15:26:47;;;;;;;1.70;0.90;;;7.60;99.90;;;;;;5107387;28;20198;-73
2023/01/16 15:29:52;;;;;;;1.60;0.80;;;7.50;99.90;;;;;;5109823;28;20203;-73
2023/01/16 15:32:54;;;;;;;1.67;0.80;;;7.30;99.90;;;;;;5105137;28;20343;-73
2023/01/16 15:35:39;;;;;;;2.50;0.93;;;7.30;99.90;;;;;;5107029;28;20495;-73
2023/01/16 15:38:25;;;;;;;2.70;1.33;;;7.30;99.90;;;;;;5109433;27;20969;-74
2023/01/16 15:41:12;;;;;;;2.55;1.13;;;7.20;99.90;;;;;;5108095;28;20580;-73
2023/01/16 15:47:22;;;;;;;1.63;0.80;;;7.20;99.90;;;;;;5106607;28;21034;-73
2023/01/16 15:50:19;;;;;;;1.50;0.73;;;7.20;99.90;;;;;;5105126;28;20448;-73
2023/01/16 15:53:05;;;;;;;1.70;0.83;;;7.20;99.90;;;;;;5102299;28;20469;-73
2023/01/16 15:55:53;;;;;;;1.30;0.70;;;7.10;99.90;;;;;;5107244;28;20563;-73
2023/01/16 15:58:42;;;;;;;1.67;0.70;;;7.10;99.90;;;;;;5104456;28;20577;-73
2023/01/16 16:01:29;;;;;;;1.10;0.60;;;7.00;99.90;;;;;;5103112;28;20272;-72
2023/01/16 16:04:16;;;;;;;1.27;0.70;;;6.90;99.90;;;;;;5105287;28;20822;-74
2023/01/16 16:07:02;;;;;;;2.35;0.85;;;7.00;99.90;;;;;;5106807;28;20607;-75
2023/01/16 16:09:50;;;;;;;1.30;0.73;;;7.00;99.90;;;;;;5108011;28;20198;-74
2023/01/16 16:12:35;;;;;;;2.80;1.00;;;7.00;99.90;;;;;;5101745;28;20349;-73
2023/01/16 16:18:25;;;;;;;1.50;0.70;;;7.10;99.90;;;;;;5117463;28;20446;-72
2023/01/16 16:21:14;;;;;;;1.87;0.90;;;7.00;99.90;;;;;;5113916;28;20425;-75
2023/01/16 16:24:03;;;;;;;1.10;0.60;;;7.00;99.90;;;;;;5114980;28;20476;-74
2023/01/16 16:26:49;;;;;;;1.70;0.60;;;6.90;99.90;;;;;;5107355;27;20560;-74
2023/01/16 16:29:35;;;;;;;2.08;0.90;;;6.90;99.90;;;;;;5120541;27;20195;-74
2023/01/16 16:32:22;;;;;;;1.67;0.60;;;7.00;99.90;;;;;;5114804;28;20207;-73
2023/01/16 16:35:17;;;;;;;1.30;0.70;;;6.90;99.90;;;;;;5112525;28;20236;-73
2023/01/16 16:38:04;;;;;;;1.30;0.70;;;6.90;99.90;;;;;;5108419;28;20272;-74